Time;durP1;ratioP1;P1;durP2;ratioP2;P2;SDS_P1;SDS_P2;PMS_P1;PMS_P2;Temp;Humidity;BMP_temperature;BMP_pressure;BME280_temperature;BME280_humidity;BME280_pressure;Samples;Min_cycle;Max_cycle;Signal;HPM_P1;HPM_P2
2023/06/10 00:01:55;;;;;;;9.60;4.80;;;15.40;67.90;;;;;;5043071;28;20498;-65
2023/06/10 00:04:20;;;;;;;13.52;4.93;;;15.40;68.10;;;;;;5036048;28;20049;-63
2023/06/10 00:06:48;;;;;;;9.27;5.03;;;15.30;68.20;;;;;;5039922;28;20362;-64
2023/06/10 00:09:14;;;;;;;9.70;5.05;;;15.30;68.40;;;;;;5037732;28;20087;-63
2023/06/10 00:11:40;;;;;;;10.80;4.82;;;15.30;68.40;;;;;;5049460;28;20064;-63
2023/06/10 00:14:06;;;;;;;10.32;5.38;;;15.30;68.50;;;;;;5043797;28;20052;-63
2023/06/10 00:16:32;;;;;;;7.60;4.03;;;15.10;68.60;;;;;;5021435;28;20121;-64
2023/06/10 00:19:00;;;;;;;8.63;5.05;;;15.10;68.70;;;;;;5032751;28;20044;-63
2023/06/10 00:21:27;;;;;;;10.07;5.28;;;15.20;68.70;;;;;;5037673;28;20087;-63
2023/06/10 00:23:53;;;;;;;11.43;4.45;;;15.20;68.70;;;;;;5054267;28;20044;-63
2023/06/10 00:26:18;;;;;;;8.38;4.95;;;15.20;68.60;;;;;;5041913;28;20423;-64
2023/06/10 00:28:45;;;;;;;11.98;5.05;;;15.20;68.50;;;;;;5051614;28;20041;-63
2023/06/10 00:31:11;;;;;;;10.30;4.97;;;15.20;68.30;;;;;;5044827;28;20044;-63
2023/06/10 00:33:36;;;;;;;9.82;5.10;;;15.20;68.40;;;;;;5039459;28;20107;-63
2023/06/10 00:36:02;;;;;;;8.10;4.90;;;15.10;68.30;;;;;;5043659;28;20520;-65
2023/06/10 00:38:27;;;;;;;8.35;4.38;;;15.10;68.30;;;;;;5036173;28;20120;-63
2023/06/10 00:40:53;;;;;;;10.30;4.75;;;15.10;68.20;;;;;;5037237;28;20086;-64
2023/06/10 00:43:18;;;;;;;8.45;4.95;;;15.10;68.10;;;;;;5042417;28;20037;-63
2023/06/10 00:45:44;;;;;;;9.15;4.75;;;15.00;68.10;;;;;;5038852;28;20493;-65
2023/06/10 00:48:10;;;;;;;10.25;4.72;;;14.90;68.30;;;;;;5042401;28;20440;-63
2023/06/10 00:50:39;;;;;;;10.88;5.10;;;14.80;68.30;;;;;;5038564;28;20036;-63
2023/06/10 00:53:05;;;;;;;6.82;4.80;;;14.70;68.60;;;;;;5038608;28;20384;-64
2023/06/10 00:55:32;;;;;;;9.25;5.15;;;14.80;68.60;;;;;;5037565;28;20044;-64
2023/06/10 00:57:59;;;;;;;10.90;5.30;;;14.80;68.60;;;;;;5043806;28;20071;-65
2023/06/10 01:00:25;;;;;;;8.57;4.60;;;14.70;68.60;;;;;;5030227;28;20135;-63
2023/06/10 01:02:52;;;;;;;8.68;5.18;;;14.70;68.50;;;;;;5036124;28;20041;-64
2023/06/10 01:05:18;;;;;;;9.32;4.95;;;14.80;68.40;;;;;;5039369;28;20029;-65
2023/06/10 01:07:56;;;;;;;10.55;4.93;;;14.70;68.20;;;;;;5038561;28;20052;-63
2023/06/10 01:10:33;;;;;;;7.05;4.38;;;14.80;68.60;;;;;;5037342;28;20106;-64
2023/06/10 01:13:08;;;;;;;11.00;5.53;;;14.70;68.10;;;;;;5038937;28;20150;-63
2023/06/10 01:15:35;;;;;;;8.30;4.80;;;14.80;67.90;;;;;;5036780;28;20040;-65
2023/06/10 01:18:14;;;;;;;10.55;4.88;;;14.70;67.90;;;;;;5040096;28;20032;-63
2023/06/10 01:20:42;;;;;;;7.87;4.80;;;14.70;68.00;;;;;;5034661;28;21840;-64
2023/06/10 01:23:09;;;;;;;8.07;4.80;;;14.60;67.80;;;;;;5004318;28;20076;-63
2023/06/10 01:25:39;;;;;;;8.85;4.65;;;14.60;67.70;;;;;;5038539;28;20041;-63
2023/06/10 01:28:15;;;;;;;10.37;5.10;;;14.70;67.70;;;;;;5046674;28;20065;-64
2023/06/10 01:31:13;;;;;;;9.60;5.07;;;14.70;67.60;;;;;;5039047;28;20037;-64
2023/06/10 01:33:43;;;;;;;9.15;4.60;;;14.70;67.50;;;;;;5043274;28;20044;-65
2023/06/10 01:36:09;;;;;;;9.43;5.63;;;14.60;67.40;;;;;;5040842;28;20036;-64
2023/06/10 01:38:44;;;;;;;9.95;5.05;;;14.60;67.30;;;;;;5040593;28;20400;-64
2023/06/10 01:41:13;;;;;;;11.93;5.55;;;14.50;67.50;;;;;;5041532;28;20044;-64
2023/06/10 01:43:39;;;;;;;10.55;5.50;;;14.50;67.40;;;;;;5047928;28;20378;-63
2023/06/10 01:46:05;;;;;;;9.23;4.90;;;14.50;67.50;;;;;;5042743;28;20044;-64
2023/06/10 01:48:32;;;;;;;8.50;4.75;;;14.40;67.60;;;;;;5033600;28;20217;-62
2023/06/10 01:50:58;;;;;;;7.90;4.70;;;14.40;67.50;;;;;;5037090;28;20052;-63
2023/06/10 01:53:24;;;;;;;10.52;4.88;;;14.40;67.40;;;;;;5039914;28;20045;-64
2023/06/10 01:55:50;;;;;;;10.52;4.93;;;14.40;67.20;;;;;;5042966;28;20033;-64
2023/06/10 01:58:16;;;;;;;7.55;4.55;;;14.40;67.10;;;;;;5044023;28;20083;-64
2023/06/10 02:00:41;;;;;;;8.23;4.03;;;14.40;67.00;;;;;;5038033;28;20037;-63
2023/06/10 02:03:07;;;;;;;10.70;4.68;;;14.40;66.90;;;;;;5033674;28;20036;-63
2023/06/10 02:05:33;;;;;;;9.23;4.60;;;14.40;66.90;;;;;;5039165;28;20128;-65
2023/06/10 02:07:58;;;;;;;8.27;4.35;;;14.40;66.90;;;;;;5040854;28;20116;-64
2023/06/10 02:10:24;;;;;;;11.35;4.43;;;14.30;67.00;;;;;;5035545;28;20453;-63
2023/06/10 02:12:50;;;;;;;10.80;4.60;;;14.30;67.10;;;;;;5040178;28;20125;-64
2023/06/10 02:15:16;;;;;;;9.18;4.97;;;14.30;67.10;;;;;;5033010;28;20445;-63
2023/06/10 02:17:41;;;;;;;10.35;4.50;;;14.30;67.20;;;;;;5037431;28;20035;-63
2023/06/10 02:20:10;;;;;;;9.30;4.50;;;14.30;67.20;;;;;;5024801;28;20048;-64
2023/06/10 02:22:36;;;;;;;7.30;4.38;;;14.30;67.30;;;;;;5036248;28;20032;-65
2023/06/10 02:25:03;;;;;;;7.97;4.53;;;14.20;68.10;;;;;;5042067;28;20476;-63
2023/06/10 02:27:30;;;;;;;8.68;4.40;;;14.20;67.70;;;;;;5041052;28;20381;-63
2023/06/10 02:29:56;;;;;;;7.93;4.95;;;14.10;67.80;;;;;;5037238;28;20433;-63
2023/06/10 02:32:21;;;;;;;9.65;4.50;;;14.10;68.00;;;;;;5036679;28;20128;-64
2023/06/10 02:34:48;;;;;;;9.77;5.10;;;14.00;68.10;;;;;;5040247;28;20041;-63
2023/06/10 02:37:14;;;;;;;9.40;4.47;;;14.00;68.30;;;;;;5035213;28;20118;-63
2023/06/10 02:39:40;;;;;;;9.43;5.32;;;13.90;68.40;;;;;;5044839;28;20036;-63
2023/06/10 02:42:06;;;;;;;8.63;4.80;;;13.80;68.50;;;;;;5039277;28;20132;-62
2023/06/10 02:44:32;;;;;;;13.05;5.15;;;13.80;68.70;;;;;;5038015;28;20081;-64
2023/06/10 02:46:57;;;;;;;12.38;5.20;;;13.80;68.90;;;;;;5030735;28;20103;-64
2023/06/10 02:49:23;;;;;;;7.88;4.28;;;13.70;68.90;;;;;;5039297;28;20444;-64
2023/06/10 02:51:53;;;;;;;10.50;5.32;;;13.70;69.10;;;;;;5032361;28;21757;-66
2023/06/10 02:54:19;;;;;;;9.15;4.85;;;13.60;69.20;;;;;;5063462;28;20045;-63
2023/06/10 02:56:45;;;;;;;7.38;4.82;;;13.50;69.50;;;;;;5028824;28;20052;-63
2023/06/10 02:59:11;;;;;;;11.95;5.38;;;13.50;69.80;;;;;;5041637;28;20303;-63
2023/06/10 03:01:37;;;;;;;13.48;4.75;;;13.40;69.80;;;;;;5041954;28;20048;-63
2023/06/10 03:04:04;;;;;;;11.85;5.22;;;13.40;70.80;;;;;;5038362;28;20361;-62
2023/06/10 03:06:30;;;;;;;9.68;4.90;;;13.30;70.30;;;;;;5016700;28;20120;-62
2023/06/10 03:08:56;;;;;;;13.25;5.72;;;13.30;70.50;;;;;;5042605;28;20073;-63
2023/06/10 03:11:22;;;;;;;10.52;5.63;;;13.20;70.70;;;;;;5043524;28;20479;-63
2023/06/10 03:13:48;;;;;;;7.97;5.03;;;13.10;70.90;;;;;;5033691;28;20125;-63
2023/06/10 03:16:13;;;;;;;10.60;5.70;;;13.10;71.10;;;;;;5040970;28;20120;-63
2023/06/10 03:18:39;;;;;;;12.00;5.90;;;13.10;71.30;;;;;;5043956;28;20094;-63
2023/06/10 03:21:05;;;;;;;12.10;5.22;;;13.10;71.40;;;;;;5035346;28;20491;-65
2023/06/10 03:23:30;;;;;;;12.35;5.45;;;13.00;71.40;;;;;;5036129;28;20044;-64
2023/06/10 03:25:56;;;;;;;11.45;5.53;;;13.00;71.50;;;;;;5032350;28;20029;-63
2023/06/10 03:28:21;;;;;;;8.38;5.20;;;13.00;71.70;;;;;;5039345;28;20041;-65
2023/06/10 03:30:48;;;;;;;10.65;4.80;;;13.00;71.80;;;;;;5040780;28;20051;-64
2023/06/10 03:33:13;;;;;;;11.05;5.50;;;12.90;71.90;;;;;;5043255;28;20418;-63
2023/06/10 03:35:39;;;;;;;9.05;5.28;;;12.90;72.10;;;;;;5039854;28;20128;-63
2023/06/10 03:38:06;;;;;;;10.32;5.15;;;12.90;72.40;;;;;;5042765;28;20039;-63
2023/06/10 03:40:31;;;;;;;13.38;5.78;;;12.90;72.60;;;;;;5018442;28;20041;-66
2023/06/10 03:42:58;;;;;;;8.50;4.75;;;12.90;72.90;;;;;;5042207;28;20041;-64
2023/06/10 03:45:24;;;;;;;11.90;5.22;;;12.80;73.20;;;;;;5039770;28;20151;-64
2023/06/10 03:47:50;;;;;;;8.63;5.13;;;12.90;73.30;;;;;;5043193;28;20093;-64
2023/06/10 03:50:16;;;;;;;9.68;4.88;;;12.90;73.60;;;;;;5037331;28;20033;-64
2023/06/10 03:52:42;;;;;;;12.38;5.47;;;12.80;73.80;;;;;;5037816;28;20063;-64
2023/06/10 03:55:07;;;;;;;8.65;5.07;;;12.90;74.40;;;;;;5040407;28;20041;-63
2023/06/10 03:57:33;;;;;;;11.73;5.10;;;12.90;74.60;;;;;;5047919;28;20029;-63
2023/06/10 03:59:58;;;;;;;8.73;4.28;;;12.90;74.70;;;;;;5044869;28;20235;-63
2023/06/10 04:02:24;;;;;;;10.07;5.28;;;12.90;74.90;;;;;;5036512;28;20064;-62
2023/06/10 04:04:51;;;;;;;10.90;4.68;;;12.90;75.00;;;;;;5040805;28;20437;-64
2023/06/10 04:07:18;;;;;;;9.77;4.90;;;12.90;75.10;;;;;;5035349;28;20040;-63
2023/06/10 04:09:44;;;;;;;10.63;5.45;;;12.90;75.40;;;;;;5036814;28;20045;-63
2023/06/10 04:12:10;;;;;;;9.02;5.47;;;12.90;75.60;;;;;;5047174;28;20123;-63
2023/06/10 04:14:37;;;;;;;14.88;6.00;;;13.00;75.80;;;;;;5040449;28;20064;-64
2023/06/10 04:17:06;;;;;;;12.27;5.45;;;13.00;76.00;;;;;;5045363;28;20041;-65
2023/06/10 04:19:32;;;;;;;11.95;5.72;;;13.00;76.40;;;;;;5018597;28;20068;-63
2023/06/10 04:21:58;;;;;;;9.18;4.93;;;13.00;76.60;;;;;;5031138;28;20069;-63
2023/06/10 04:24:23;;;;;;;8.80;4.85;;;13.00;77.00;;;;;;5047653;28;20439;-63
2023/06/10 04:26:49;;;;;;;9.32;5.47;;;13.10;77.00;;;;;;5038633;28;20040;-62
2023/06/10 04:29:15;;;;;;;10.68;5.40;;;13.10;77.50;;;;;;5042048;28;20551;-64
2023/06/10 04:31:40;;;;;;;9.57;4.95;;;13.20;77.70;;;;;;5022151;28;20131;-64
2023/06/10 04:34:07;;;;;;;13.40;5.75;;;13.20;78.00;;;;;;5038904;28;20160;-63
2023/06/10 04:36:33;;;;;;;9.10;5.07;;;13.30;78.30;;;;;;5039030;28;20515;-66
2023/06/10 04:38:58;;;;;;;13.13;5.50;;;13.40;78.50;;;;;;5038572;28;20064;-65
2023/06/10 04:41:25;;;;;;;11.40;6.80;;;13.40;79.00;;;;;;5038926;28;20473;-64
2023/06/10 04:43:51;;;;;;;10.00;5.53;;;13.50;78.80;;;;;;5044152;28;20048;-65
2023/06/10 04:46:17;;;;;;;10.43;5.15;;;13.60;79.20;;;;;;5036502;28;20029;-64
2023/06/10 04:48:42;;;;;;;12.75;5.68;;;13.70;79.40;;;;;;5040147;28;20131;-67
2023/06/10 04:51:08;;;;;;;13.60;5.93;;;13.70;79.70;;;;;;5034846;28;20053;-65
2023/06/10 04:53:33;;;;;;;9.68;6.10;;;13.90;80.00;;;;;;5041557;28;20396;-64
2023/06/10 04:55:59;;;;;;;14.30;6.18;;;14.00;80.10;;;;;;5035273;28;20444;-62
2023/06/10 04:58:25;;;;;;;10.85;5.78;;;14.10;80.00;;;;;;5039341;28;20603;-63
2023/06/10 05:00:50;;;;;;;11.52;5.65;;;14.20;80.20;;;;;;5041173;28;20080;-66
2023/06/10 05:03:16;;;;;;;9.10;5.32;;;14.30;80.40;;;;;;5065147;28;20045;-65
2023/06/10 05:05:41;;;;;;;12.35;6.72;;;14.40;80.30;;;;;;5060412;28;20061;-67
2023/06/10 05:08:08;;;;;;;13.85;6.25;;;14.50;81.00;;;;;;5037938;28;20049;-64
2023/06/10 05:10:34;;;;;;;11.98;5.60;;;14.60;81.20;;;;;;5017784;28;20064;-66
2023/06/10 05:12:59;;;;;;;8.52;5.22;;;14.80;81.10;;;;;;5045943;28;20060;-68
2023/06/10 05:15:25;;;;;;;11.82;5.90;;;14.90;81.30;;;;;;5042651;28;20083;-64
2023/06/10 05:17:51;;;;;;;12.32;6.35;;;15.10;81.20;;;;;;5024676;28;20131;-63
2023/06/10 05:20:18;;;;;;;10.82;6.55;;;15.20;81.00;;;;;;5043971;28;20056;-63
2023/06/10 05:22:44;;;;;;;12.70;5.85;;;15.40;80.80;;;;;;5028056;28;20042;-63
2023/06/10 05:25:10;;;;;;;13.65;5.28;;;15.50;80.50;;;;;;5024881;28;20045;-65
2023/06/10 05:27:35;;;;;;;11.77;5.45;;;15.60;80.10;;;;;;5037547;28;20110;-64
2023/06/10 05:30:02;;;;;;;9.57;5.55;;;15.70;79.70;;;;;;5040835;28;20066;-65
2023/06/10 05:32:27;;;;;;;10.55;5.55;;;15.90;79.60;;;;;;5030177;28;20052;-64
2023/06/10 05:34:53;;;;;;;12.57;6.95;;;16.00;78.90;;;;;;5032143;28;20033;-66
2023/06/10 05:37:19;;;;;;;10.88;5.55;;;16.10;78.80;;;;;;5035706;28;20488;-64
2023/06/10 05:39:44;;;;;;;10.77;5.57;;;16.00;78.70;;;;;;5033167;28;20037;-64
2023/06/10 05:42:10;;;;;;;9.10;4.75;;;16.10;78.30;;;;;;5018643;28;20410;-64
2023/06/10 05:44:36;;;;;;;11.30;4.85;;;16.40;78.00;;;;;;5037558;28;20038;-65
2023/06/10 05:47:01;;;;;;;16.23;5.63;;;16.50;77.80;;;;;;5041880;28;20084;-64
2023/06/10 05:49:27;;;;;;;8.68;5.32;;;16.60;77.30;;;;;;5035714;28;20111;-64
2023/06/10 05:51:53;;;;;;;12.18;5.00;;;16.70;76.90;;;;;;5057601;28;20037;-64
2023/06/10 05:54:19;;;;;;;11.52;5.45;;;16.90;76.40;;;;;;5045884;28;20094;-65
2023/06/10 05:56:44;;;;;;;9.80;4.82;;;17.10;75.80;;;;;;5034467;28;20055;-64
2023/06/10 05:59:11;;;;;;;10.82;5.20;;;17.10;75.60;;;;;;5035905;28;20045;-66
2023/06/10 06:01:36;;;;;;;9.95;5.00;;;17.40;75.10;;;;;;5046786;28;20045;-64
2023/06/10 06:04:02;;;;;;;10.05;5.30;;;17.60;74.50;;;;;;5022680;28;20064;-64
2023/06/10 06:06:28;;;;;;;8.68;4.90;;;17.70;73.90;;;;;;5036988;28;20051;-66
2023/06/10 06:08:53;;;;;;;13.68;5.38;;;17.80;73.30;;;;;;5020914;28;20504;-66
2023/06/10 06:11:19;;;;;;;7.20;4.68;;;17.70;73.10;;;;;;5044708;28;20072;-64
2023/06/10 06:13:44;;;;;;;12.25;5.18;;;17.80;72.70;;;;;;5038163;28;20033;-65
2023/06/10 06:16:10;;;;;;;10.70;4.90;;;18.00;72.40;;;;;;5034499;28;20056;-63
2023/06/10 06:18:36;;;;;;;8.70;4.93;;;18.10;71.90;;;;;;5030648;28;20422;-64
2023/06/10 06:21:01;;;;;;;9.48;4.95;;;18.40;71.40;;;;;;5037009;28;20745;-65
2023/06/10 06:23:27;;;;;;;10.80;4.82;;;18.60;70.60;;;;;;5022231;28;20049;-65
2023/06/10 06:25:52;;;;;;;8.20;5.03;;;18.60;70.40;;;;;;5039835;28;20086;-64
2023/06/10 06:28:20;;;;;;;11.77;5.55;;;18.80;70.00;;;;;;5042500;28;20091;-65
2023/06/10 06:30:46;;;;;;;10.18;5.35;;;19.10;69.50;;;;;;5028357;28;20386;-65
2023/06/10 06:33:15;;;;;;;10.23;5.45;;;19.10;69.60;;;;;;5026728;28;20112;-67
2023/06/10 06:35:41;;;;;;;10.48;5.47;;;19.20;69.10;;;;;;5022924;28;20132;-66
2023/06/10 06:38:06;;;;;;;10.02;7.10;;;19.40;68.80;;;;;;5042707;28;20047;-64
2023/06/10 06:40:32;;;;;;;11.40;5.95;;;19.50;68.10;;;;;;5039568;28;20135;-67
2023/06/10 06:42:57;;;;;;;12.63;5.65;;;19.70;67.80;;;;;;5025366;28;20120;-62
2023/06/10 06:45:23;;;;;;;12.10;5.30;;;19.80;67.20;;;;;;5045281;28;20068;-63
2023/06/10 06:47:51;;;;;;;9.57;5.43;;;19.70;66.70;;;;;;5048954;28;20056;-62
2023/06/10 06:50:16;;;;;;;10.93;6.10;;;19.90;65.70;;;;;;5048306;28;20049;-62
2023/06/10 06:52:42;;;;;;;9.60;5.40;;;19.80;65.40;;;;;;5026254;28;20076;-62
2023/06/10 06:55:08;;;;;;;11.40;5.10;;;20.10;64.90;;;;;;5046805;28;20033;-61
2023/06/10 06:57:33;;;;;;;9.50;6.18;;;20.30;64.40;;;;;;5046905;28;20120;-63
2023/06/10 06:59:59;;;;;;;12.15;5.72;;;20.30;63.20;;;;;;5047338;28;20223;-63
2023/06/10 07:02:24;;;;;;;16.02;6.05;;;20.30;63.00;;;;;;5040845;28;20040;-63
2023/06/10 07:04:50;;;;;;;8.82;5.32;;;20.60;62.40;;;;;;5027464;28;20109;-63
2023/06/10 07:07:16;;;;;;;10.45;6.13;;;20.90;62.10;;;;;;5046156;28;20042;-63
2023/06/10 07:09:41;;;;;;;12.27;6.50;;;21.00;61.50;;;;;;5047719;28;20041;-63
2023/06/10 07:12:08;;;;;;;9.25;5.45;;;21.20;60.40;;;;;;5039751;28;20510;-64
2023/06/10 07:14:33;;;;;;;9.82;5.80;;;21.40;59.80;;;;;;5046333;28;20060;-64
2023/06/10 07:16:59;;;;;;;10.52;5.20;;;21.30;58.90;;;;;;5043697;28;20365;-63
2023/06/10 07:19:24;;;;;;;10.48;5.60;;;21.30;58.80;;;;;;5048301;28;20032;-63
2023/06/10 07:21:50;;;;;;;8.13;5.00;;;21.20;58.90;;;;;;5028580;28;20128;-65
2023/06/10 07:24:15;;;;;;;8.95;5.53;;;21.60;58.50;;;;;;5044628;28;20049;-62
2023/06/10 07:26:41;;;;;;;8.98;4.70;;;21.60;56.90;;;;;;5038690;28;20045;-64
2023/06/10 07:29:07;;;;;;;9.02;5.20;;;21.90;57.20;;;;;;5044899;28;20044;-62
2023/06/10 07:31:32;;;;;;;8.38;4.47;;;22.20;56.20;;;;;;5028484;28;20174;-65
2023/06/10 07:33:58;;;;;;;9.55;5.20;;;22.50;55.90;;;;;;5045655;28;20129;-63
2023/06/10 07:36:24;;;;;;;6.85;4.35;;;22.70;54.80;;;;;;5045443;28;20045;-62
2023/06/10 07:38:49;;;;;;;7.55;4.70;;;23.00;53.90;;;;;;5043342;28;20128;-63
2023/06/10 07:41:17;;;;;;;6.63;4.05;;;23.30;53.20;;;;;;5043847;28;20049;-63
2023/06/10 07:43:43;;;;;;;8.75;5.07;;;23.60;52.50;;;;;;5045574;28;20045;-63
2023/06/10 07:46:08;;;;;;;7.38;4.30;;;23.70;51.40;;;;;;5041720;28;20037;-63
2023/06/10 07:48:34;;;;;;;8.27;4.40;;;23.70;50.10;;;;;;5042584;28;20124;-63
2023/06/10 07:51:00;;;;;;;6.95;4.68;;;24.00;49.80;;;;;;5045020;28;20057;-63
2023/06/10 07:53:25;;;;;;;11.30;4.70;;;23.90;48.70;;;;;;5042009;28;20073;-64
2023/06/10 07:55:51;;;;;;;6.90;4.40;;;24.10;48.10;;;;;;5041061;28;20039;-62
2023/06/10 07:58:16;;;;;;;4.70;3.78;;;24.40;47.90;;;;;;5032172;28;20174;-64
2023/06/10 08:00:42;;;;;;;6.03;4.03;;;24.60;47.50;;;;;;5026369;28;20049;-63
2023/06/10 08:03:07;;;;;;;7.20;3.88;;;24.70;46.50;;;;;;5036912;28;20056;-63
2023/06/10 08:05:33;;;;;;;6.40;3.88;;;24.70;45.60;;;;;;5046705;28;20132;-63
2023/06/10 08:07:59;;;;;;;5.55;4.50;;;24.80;45.20;;;;;;5045045;28;20075;-63
2023/06/10 08:10:24;;;;;;;5.82;4.05;;;24.50;44.90;;;;;;5047570;28;20088;-62
2023/06/10 08:12:50;;;;;;;5.57;3.45;;;24.80;45.00;;;;;;5045942;28;20096;-63
2023/06/10 08:15:15;;;;;;;7.03;4.70;;;25.30;45.10;;;;;;5048244;28;20065;-63
2023/06/10 08:17:41;;;;;;;6.43;3.85;;;25.50;44.40;;;;;;5050955;28;20033;-64
2023/06/10 08:20:07;;;;;;;5.88;4.00;;;25.70;44.00;;;;;;5047895;28;20045;-63
2023/06/10 08:22:33;;;;;;;9.80;4.50;;;25.90;43.30;;;;;;5049048;28;20037;-63
2023/06/10 08:24:59;;;;;;;6.95;3.50;;;26.30;42.80;;;;;;5048847;28;20174;-63
2023/06/10 08:27:25;;;;;;;6.05;4.13;;;26.40;42.70;;;;;;5049078;28;20037;-63
2023/06/10 08:29:50;;;;;;;7.72;4.68;;;26.50;42.50;;;;;;5049069;28;20037;-64
2023/06/10 08:32:16;;;;;;;4.22;3.83;;;26.90;42.00;;;;;;5030397;28;20037;-62
2023/06/10 08:34:41;;;;;;;4.60;3.60;;;26.90;41.00;;;;;;5051697;28;20077;-64
2023/06/10 08:37:07;;;;;;;11.90;4.40;;;27.20;39.80;;;;;;5045374;28;20040;-64
2023/06/10 08:39:33;;;;;;;4.32;3.63;;;27.20;38.50;;;;;;5045243;28;20660;-64
2023/06/10 08:42:09;;;;;;;5.68;3.78;;;27.30;38.00;;;;;;5043392;28;20052;-63
2023/06/10 08:44:39;;;;;;;6.47;4.10;;;27.60;35.60;;;;;;5048345;28;20586;-62
2023/06/10 08:47:14;;;;;;;6.72;4.32;;;27.60;36.40;;;;;;5047086;28;20068;-64
2023/06/10 08:49:43;;;;;;;7.53;3.97;;;27.40;35.00;;;;;;5049279;28;20142;-64
2023/06/10 08:52:15;;;;;;;8.60;3.85;;;27.60;35.50;;;;;;5046144;28;20040;-63
2023/06/10 08:54:43;;;;;;;4.55;3.10;;;27.30;36.70;;;;;;5050387;28;20488;-64
2023/06/10 08:57:09;;;;;;;5.47;3.40;;;27.90;35.10;;;;;;5043972;28;20122;-63
2023/06/10 08:59:36;;;;;;;6.97;3.88;;;28.40;35.10;;;;;;5047551;28;20029;-62
2023/06/10 09:02:04;;;;;;;5.40;3.80;;;28.80;34.50;;;;;;5020800;28;20104;-64
2023/06/10 09:04:30;;;;;;;5.53;3.40;;;28.90;33.60;;;;;;5012631;28;20034;-64
2023/06/10 09:06:56;;;;;;;4.85;3.42;;;29.10;33.20;;;;;;5039244;28;20037;-62
2023/06/10 09:09:23;;;;;;;5.15;3.47;;;29.70;32.30;;;;;;5048388;28;20048;-63
2023/06/10 09:11:48;;;;;;;5.97;3.40;;;29.90;31.10;;;;;;5040360;28;20033;-65
2023/06/10 09:14:14;;;;;;;4.88;3.90;;;29.90;30.70;;;;;;5048362;28;20064;-63
2023/06/10 09:16:41;;;;;;;4.93;3.83;;;30.30;30.00;;;;;;5047488;28;20041;-64
2023/06/10 09:19:10;;;;;;;6.60;3.75;;;30.00;30.10;;;;;;5047447;28;20037;-64
2023/06/10 09:21:35;;;;;;;4.82;3.42;;;30.40;30.50;;;;;;5037811;28;20045;-65
2023/06/10 09:24:01;;;;;;;6.25;3.60;;;31.10;30.50;;;;;;5049422;28;20087;-64
2023/06/10 09:26:29;;;;;;;6.32;3.20;;;31.60;29.70;;;;;;5047640;28;20049;-63
2023/06/10 09:29:04;;;;;;;7.38;3.60;;;31.80;29.40;;;;;;5049198;28;20099;-63
2023/06/10 09:31:31;;;;;;;6.70;3.60;;;32.40;28.80;;;;;;5050253;28;20412;-63
2023/06/10 09:34:11;;;;;;;5.72;3.58;;;32.70;28.20;;;;;;5047665;28;20041;-64
2023/06/10 09:36:38;;;;;;;4.22;3.25;;;32.70;25.80;;;;;;5039112;28;20041;-63
2023/06/10 09:39:04;;;;;;;5.75;3.63;;;33.30;26.60;;;;;;5047318;28;20071;-65
2023/06/10 09:41:39;;;;;;;5.35;3.40;;;33.10;26.70;;;;;;5041991;28;20048;-65
2023/06/10 09:44:15;;;;;;;4.75;3.35;;;33.60;26.70;;;;;;5046536;28;20037;-64
2023/06/10 09:46:42;;;;;;;7.78;2.95;;;33.70;26.40;;;;;;5046909;28;20444;-64
2023/06/10 09:49:08;;;;;;;4.57;3.13;;;33.90;26.70;;;;;;5045977;28;20064;-62
2023/06/10 09:51:34;;;;;;;5.65;2.78;;;34.20;26.60;;;;;;5047242;28;20104;-63
2023/06/10 09:54:02;;;;;;;6.78;3.38;;;34.40;26.40;;;;;;5047025;28;20508;-62
2023/06/10 09:56:37;;;;;;;5.22;3.33;;;34.50;25.30;;;;;;5043754;28;20496;-64
2023/06/10 09:59:06;;;;;;;5.53;2.90;;;34.60;24.10;;;;;;5039138;28;20163;-65
2023/06/10 10:01:33;;;;;;;4.75;2.80;;;34.90;24.80;;;;;;5047069;28;20040;-64
2023/06/10 10:03:59;;;;;;;4.35;3.10;;;35.40;25.00;;;;;;5044717;28;20056;-63
2023/06/10 10:06:25;;;;;;;4.10;3.28;;;36.10;24.20;;;;;;5028203;28;20041;-63
2023/06/10 10:08:51;;;;;;;5.70;3.13;;;35.70;24.00;;;;;;5038502;28;20039;-64
2023/06/10 10:11:18;;;;;;;6.47;3.28;;;35.90;23.90;;;;;;5031290;28;20057;-63
2023/06/10 10:13:47;;;;;;;6.05;3.22;;;35.40;23.40;;;;;;5049543;28;20099;-63
2023/06/10 10:16:16;;;;;;;5.05;3.13;;;35.60;23.60;;;;;;5049455;28;20045;-64
2023/06/10 10:18:49;;;;;;;5.30;3.08;;;36.20;23.40;;;;;;5048558;28;20041;-65
2023/06/10 10:21:17;;;;;;;4.72;2.97;;;35.70;22.50;;;;;;5047620;28;20094;-63
2023/06/10 10:23:49;;;;;;;4.40;2.63;;;35.00;22.70;;;;;;5045369;28;20371;-64
2023/06/10 10:26:16;;;;;;;4.20;2.70;;;35.80;21.40;;;;;;5049120;28;20072;-65
2023/06/10 10:28:47;;;;;;;3.33;2.53;;;36.10;22.20;;;;;;5042870;28;20108;-65
2023/06/10 10:31:18;;;;;;;4.80;3.38;;;36.70;21.80;;;;;;5046928;28;20044;-64
2023/06/10 10:33:59;;;;;;;4.55;2.97;;;37.00;23.20;;;;;;5043135;28;20120;-64
2023/06/10 10:36:26;;;;;;;4.68;2.70;;;37.60;21.30;;;;;;5046701;28;20097;-64
2023/06/10 10:38:52;;;;;;;5.38;3.20;;;37.50;21.60;;;;;;5044452;28;20044;-64
2023/06/10 10:41:19;;;;;;;4.30;2.47;;;38.00;21.40;;;;;;5044461;28;20080;-65
2023/06/10 10:43:46;;;;;;;5.60;2.70;;;38.20;21.30;;;;;;5036481;28;20111;-65
2023/06/10 10:46:14;;;;;;;6.22;2.90;;;37.90;20.80;;;;;;5043558;28;20386;-64
2023/06/10 10:48:43;;;;;;;4.72;2.70;;;38.20;20.50;;;;;;5043005;28;20499;-64
2023/06/10 10:51:10;;;;;;;3.87;2.40;;;38.10;20.60;;;;;;5044844;28;20413;-65
2023/06/10 10:53:39;;;;;;;3.35;2.72;;;37.60;21.00;;;;;;5044407;28;20380;-65
2023/06/10 10:56:18;;;;;;;3.20;2.70;;;36.80;20.30;;;;;;5044110;28;20056;-66
2023/06/10 10:59:05;;;;;;;4.72;2.92;;;35.70;21.30;;;;;;5039478;28;20047;-65
2023/06/10 11:01:41;;;;;;;4.88;2.80;;;34.40;23.00;;;;;;5041347;28;20049;-64
2023/06/10 11:04:09;;;;;;;4.10;2.75;;;33.50;23.90;;;;;;5038370;28;20049;-66
2023/06/10 11:06:35;;;;;;;5.53;2.97;;;32.50;25.50;;;;;;5046886;28;20066;-65
2023/06/10 11:09:00;;;;;;;4.47;2.53;;;31.90;26.40;;;;;;5044679;28;20139;-62
2023/06/10 11:11:27;;;;;;;4.45;2.90;;;31.40;27.60;;;;;;5047001;28;20064;-64
2023/06/10 11:14:09;;;;;;;5.82;2.45;;;31.10;27.90;;;;;;5044118;28;20124;-64
2023/06/10 11:16:42;;;;;;;5.60;3.13;;;30.70;27.80;;;;;;5045345;28;20045;-62
2023/06/10 11:19:08;;;;;;;4.50;2.80;;;30.50;27.50;;;;;;5046185;28;20052;-63
2023/06/10 11:21:59;;;;;;;5.30;2.45;;;30.20;27.90;;;;;;5042648;28;20094;-64
2023/06/10 11:24:25;;;;;;;4.50;2.50;;;30.10;28.10;;;;;;5039107;28;20091;-64
2023/06/10 11:26:51;;;;;;;5.13;2.67;;;30.10;28.30;;;;;;5034951;28;20081;-63
2023/06/10 11:29:17;;;;;;;3.90;2.90;;;30.00;28.60;;;;;;5044449;28;20080;-62
2023/06/10 11:31:49;;;;;;;4.18;2.60;;;29.90;28.50;;;;;;5046562;28;20048;-63
2023/06/10 11:34:23;;;;;;;4.32;2.63;;;29.50;28.10;;;;;;5044935;28;20083;-63
2023/06/10 11:36:49;;;;;;;3.95;2.65;;;29.20;29.00;;;;;;5029913;28;20043;-65
2023/06/10 11:39:15;;;;;;;4.28;2.75;;;29.00;28.90;;;;;;5045225;28;20044;-64
2023/06/10 11:41:40;;;;;;;3.53;2.70;;;29.10;28.80;;;;;;5023017;28;20033;-64
2023/06/10 11:44:11;;;;;;;3.97;2.30;;;29.00;28.90;;;;;;5027951;28;20033;-63
2023/06/10 11:46:38;;;;;;;4.00;2.42;;;29.00;28.80;;;;;;5043917;28;20045;-62
2023/06/10 11:49:05;;;;;;;3.95;2.60;;;28.90;28.30;;;;;;5048458;28;20041;-63
2023/06/10 11:51:40;;;;;;;6.47;2.80;;;28.90;28.00;;;;;;5046807;28;20139;-63
2023/06/10 11:54:07;;;;;;;6.68;2.47;;;28.90;28.30;;;;;;5046697;28;20102;-63
2023/06/10 11:56:33;;;;;;;4.18;2.47;;;29.10;28.30;;;;;;5049909;28;20045;-63
2023/06/10 11:59:04;;;;;;;4.72;2.92;;;29.40;28.20;;;;;;5038712;28;20476;-64
2023/06/10 12:01:30;;;;;;;3.33;2.67;;;29.30;27.60;;;;;;5041860;28;20037;-63
2023/06/10 12:04:07;;;;;;;7.55;2.38;;;29.40;27.70;;;;;;5046593;28;20373;-64
2023/06/10 12:06:50;;;;;;;5.22;2.80;;;29.60;27.90;;;;;;5046777;28;20036;-64
2023/06/10 12:09:21;;;;;;;4.68;2.25;;;29.70;27.60;;;;;;5049927;28;20047;-64
2023/06/10 12:11:51;;;;;;;4.50;2.45;;;30.00;27.80;;;;;;5048132;28;20099;-64
2023/06/10 12:14:36;;;;;;;;;;;29.90;27.20;;;;;;5049536;28;20558;-63
2023/06/10 12:17:02;;;;;;;4.10;2.33;;;30.10;27.70;;;;;;5049084;28;20012;-64
2023/06/10 12:19:28;;;;;;;3.05;2.50;;;30.70;27.40;;;;;;5049614;28;20172;-62
2023/06/10 12:21:53;;;;;;;4.95;2.35;;;31.60;26.80;;;;;;5046231;28;20037;-64
2023/06/10 12:24:19;;;;;;;4.55;2.80;;;32.60;26.30;;;;;;5050188;28;20534;-64
2023/06/10 12:26:45;;;;;;;4.53;2.67;;;33.50;25.50;;;;;;5049108;28;20542;-63
2023/06/10 12:29:23;;;;;;;4.80;2.78;;;34.90;24.40;;;;;;5049918;28;20513;-62
2023/06/10 12:31:55;;;;;;;4.28;2.33;;;36.30;23.60;;;;;;5047433;28;20063;-63
2023/06/10 12:34:31;;;;;;;7.57;2.30;;;37.50;22.40;;;;;;5047596;28;20048;-64
2023/06/10 12:36:57;;;;;;;4.47;2.40;;;38.40;21.50;;;;;;5045216;28;20057;-63
2023/06/10 12:39:23;;;;;;;4.30;2.15;;;39.50;20.50;;;;;;5045438;28;20056;-63
2023/06/10 12:41:49;;;;;;;2.90;1.60;;;39.90;18.70;;;;;;5049308;28;20473;-64
2023/06/10 12:44:15;;;;;;;2.70;2.08;;;39.60;18.20;;;;;;5048442;28;20123;-65